sensor_id;sensor_type;location;lat;lon;timestamp;temperature;humidity
13123;DHT22;6627;50.920;12.050;2023-06-04T00:00:55;7.00;99.90
13123;DHT22;6627;50.920;12.050;2023-06-04T00:03:33;6.90;99.90
13123;DHT22;6627;50.920;12.050;2023-06-04T00:06:08;6.90;99.90
13123;DHT22;6627;50.920;12.050;2023-06-04T00:08:42;6.80;99.90
13123;DHT22;6627;50.920;12.050;2023-06-04T00:11:17;6.90;99.90
13123;DHT22;6627;50.920;12.050;2023-06-04T00:13:54;6.90;99.90
13123;DHT22;6627;50.920;12.050;2023-06-04T00:16:31;6.80;99.90
13123;DHT22;6627;50.920;12.050;2023-06-04T00:19:07;7.20;99.90
13123;DHT22;6627;50.920;12.050;2023-06-04T00:21:42;7.40;99.90
13123;DHT22;6627;50.920;12.050;2023-06-04T00:26:46;6.90;99.90
13123;DHT22;6627;50.920;12.050;2023-06-04T00:29:22;6.80;99.90
13123;DHT22;6627;50.920;12.050;2023-06-04T00:31:51;6.80;99.90
13123;DHT22;6627;50.920;12.050;2023-06-04T00:34:31;6.80;99.90
13123;DHT22;6627;50.920;12.050;2023-06-04T00:37:03;6.60;99.90
13123;DHT22;6627;50.920;12.050;2023-06-04T00:39:36;6.50;99.90
13123;DHT22;6627;50.920;12.050;2023-06-04T00:42:10;6.50;99.90
13123;DHT22;6627;50.920;12.050;2023-06-04T00:44:43;6.30;99.90
13123;DHT22;6627;50.920;12.050;2023-06-04T00:47:18;6.20;99.90
13123;DHT22;6627;50.920;12.050;2023-06-04T00:49:50;6.20;99.90
13123;DHT22;6627;50.920;12.050;2023-06-04T00:52:26;6.20;99.90
13123;DHT22;6627;50.920;12.050;2023-06-04T00:54:56;6.10;99.90
13123;DHT22;6627;50.920;12.050;2023-06-04T00:57:31;6.10;99.90
13123;DHT22;6627;50.920;12.050;2023-06-04T01:02:46;6.40;99.90
13123;DHT22;6627;50.920;12.050;2023-06-04T01:05:29;6.90;99.90
13123;DHT22;6627;50.920;12.050;2023-06-04T01:08:06;6.50;99.90
13123;DHT22;6627;50.920;12.050;2023-06-04T01:10:50;6.30;99.90
13123;DHT22;6627;50.920;12.050;2023-06-04T01:13:21;6.40;99.90
13123;DHT22;6627;50.920;12.050;2023-06-04T01:15:55;6.60;99.90
13123;DHT22;6627;50.920;12.050;2023-06-04T01:18:28;6.90;99.90
13123;DHT22;6627;50.920;12.050;2023-06-04T01:21:03;6.50;99.90
13123;DHT22;6627;50.920;12.050;2023-06-04T01:23:40;6.30;99.90
13123;DHT22;6627;50.920;12.050;2023-06-04T01:26:15;6.10;99.90
13123;DHT22;6627;50.920;12.050;2023-06-04T01:28:47;5.90;99.90
13123;DHT22;6627;50.920;12.050;2023-06-04T01:31:24;5.80;99.90
13123;DHT22;6627;50.920;12.050;2023-06-04T01:34:02;5.70;99.90
13123;DHT22;6627;50.920;12.050;2023-06-04T01:36:36;5.60;99.90
13123;DHT22;6627;50.920;12.050;2023-06-04T01:39:09;5.60;99.90
13123;DHT22;6627;50.920;12.050;2023-06-04T01:41:45;5.60;99.90
13123;DHT22;6627;50.920;12.050;2023-06-04T01:44:18;5.60;99.90
13123;DHT22;6627;50.920;12.050;2023-06-04T01:46:50;5.50;99.90
13123;DHT22;6627;50.920;12.050;2023-06-04T01:49:22;5.40;99.90
13123;DHT22;6627;50.920;12.050;2023-06-04T01:51:54;5.40;99.90
13123;DHT22;6627;50.920;12.050;2023-06-04T01:54:27;5.40;99.90
13123;DHT22;6627;50.920;12.050;2023-06-04T01:57:00;5.40;99.90
13123;DHT22;6627;50.920;12.050;2023-06-04T01:59:38;5.40;99.90
13123;DHT22;6627;50.920;12.050;2023-06-04T02:04:48;5.40;99.90
13123;DHT22;6627;50.920;12.050;2023-06-04T02:07:21;5.40;99.90
13123;DHT22;6627;50.920;12.050;2023-06-04T02:09:50;5.70;99.90
13123;DHT22;6627;50.920;12.050;2023-06-04T02:12:25;6.00;99.90
13123;DHT22;6627;50.920;12.050;2023-06-04T02:14:56;5.80;99.90
13123;DHT22;6627;50.920;12.050;2023-06-04T02:17:28;5.50;99.90
13123;DHT22;6627;50.920;12.050;2023-06-04T02:20:00;5.30;99.90
13123;DHT22;6627;50.920;12.050;2023-06-04T02:22:33;5.30;99.90
13123;DHT22;6627;50.920;12.050;2023-06-04T02:25:06;5.20;99.90
13123;DHT22;6627;50.920;12.050;2023-06-04T02:27:37;5.20;99.90
13123;DHT22;6627;50.920;12.050;2023-06-04T02:30:08;5.30;99.90
13123;DHT22;6627;50.920;12.050;2023-06-04T02:32:38;5.20;99.90
13123;DHT22;6627;50.920;12.050;2023-06-04T02:35:14;5.20;99.90
13123;DHT22;6627;50.920;12.050;2023-06-04T02:37:42;5.10;99.90
13123;DHT22;6627;50.920;12.050;2023-06-04T02:40:17;5.10;99.90
13123;DHT22;6627;50.920;12.050;2023-06-04T02:42:46;5.10;99.90
13123;DHT22;6627;50.920;12.050;2023-06-04T02:45:16;5.10;99.90
13123;DHT22;6627;50.920;12.050;2023-06-04T02:47:49;5.20;99.90
13123;DHT22;6627;50.920;12.050;2023-06-04T02:50:19;5.20;99.90
13123;DHT22;6627;50.920;12.050;2023-06-04T02:52:49;5.20;99.90
13123;DHT22;6627;50.920;12.050;2023-06-04T02:55:25;5.30;99.90
13123;DHT22;6627;50.920;12.050;2023-06-04T02:57:57;5.60;99.90
13123;DHT22;6627;50.920;12.050;2023-06-04T03:00:32;5.40;99.90
13123;DHT22;6627;50.920;12.050;2023-06-04T03:03:11;5.20;99.90
13123;DHT22;6627;50.920;12.050;2023-06-04T03:08:17;5.60;99.90
13123;DHT22;6627;50.920;12.050;2023-06-04T03:10:50;5.30;99.90
13123;DHT22;6627;50.920;12.050;2023-06-04T03:13:20;5.00;99.90
13123;DHT22;6627;50.920;12.050;2023-06-04T03:15:53;5.00;99.90
13123;DHT22;6627;50.920;12.050;2023-06-04T03:18:26;4.90;99.90
13123;DHT22;6627;50.920;12.050;2023-06-04T03:20:57;5.00;99.90
13123;DHT22;6627;50.920;12.050;2023-06-04T03:23:27;5.10;99.90
13123;DHT22;6627;50.920;12.050;2023-06-04T03:25:55;5.20;99.90
13123;DHT22;6627;50.920;12.050;2023-06-04T03:28:32;5.00;99.90
13123;DHT22;6627;50.920;12.050;2023-06-04T03:31:03;5.00;99.90
13123;DHT22;6627;50.920;12.050;2023-06-04T03:33:37;4.80;99.90
13123;DHT22;6627;50.920;12.050;2023-06-04T03:36:09;4.80;99.90
13123;DHT22;6627;50.920;12.050;2023-06-04T03:38:40;4.70;99.90
13123;DHT22;6627;50.920;12.050;2023-06-04T03:41:12;4.70;99.90
13123;DHT22;6627;50.920;12.050;2023-06-04T03:43:41;4.70;99.90
13123;DHT22;6627;50.920;12.050;2023-06-04T03:46:12;5.10;99.90
13123;DHT22;6627;50.920;12.050;2023-06-04T03:48:44;5.50;99.90
13123;DHT22;6627;50.920;12.050;2023-06-04T03:51:17;5.60;99.90
13123;DHT22;6627;50.920;12.050;2023-06-04T03:53:51;5.20;99.90
13123;DHT22;6627;50.920;12.050;2023-06-04T03:56:24;4.90;99.90
13123;DHT22;6627;50.920;12.050;2023-06-04T03:58:58;4.90;99.90
13123;DHT22;6627;50.920;12.050;2023-06-04T04:01:31;4.80;99.90
13123;DHT22;6627;50.920;12.050;2023-06-04T04:04:06;4.80;99.90
13123;DHT22;6627;50.920;12.050;2023-06-04T04:06:39;4.80;99.90
13123;DHT22;6627;50.920;12.050;2023-06-04T04:09:12;4.70;99.90
13123;DHT22;6627;50.920;12.050;2023-06-04T04:11:50;4.70;99.90
13123;DHT22;6627;50.920;12.050;2023-06-04T04:14:26;4.80;99.90
13123;DHT22;6627;50.920;12.050;2023-06-04T04:17:03;4.90;99.90
13123;DHT22;6627;50.920;12.050;2023-06-04T04:19:40;4.90;99.90
13123;DHT22;6627;50.920;12.050;2023-06-04T04:22:10;4.90;99.90
13123;DHT22;6627;50.920;12.050;2023-06-04T04:24:47;4.90;99.90
13123;DHT22;6627;50.920;12.050;2023-06-04T04:27:26;4.90;99.90
13123;DHT22;6627;50.920;12.050;2023-06-04T04:30:00;5.00;99.90
13123;DHT22;6627;50.920;12.050;2023-06-04T04:32:34;5.00;99.90
13123;DHT22;6627;50.920;12.050;2023-06-04T04:35:12;5.10;99.90
13123;DHT22;6627;50.920;12.050;2023-06-04T04:37:47;5.20;99.90
13123;DHT22;6627;50.920;12.050;2023-06-04T04:40:17;5.30;99.90
13123;DHT22;6627;50.920;12.050;2023-06-04T04:42:51;5.30;99.90
13123;DHT22;6627;50.920;12.050;2023-06-04T04:45:24;5.40;99.90
13123;DHT22;6627;50.920;12.050;2023-06-04T04:48:00;5.40;99.90
13123;DHT22;6627;50.920;12.050;2023-06-04T04:50:38;5.50;99.90
13123;DHT22;6627;50.920;12.050;2023-06-04T04:53:09;5.60;99.90
13123;DHT22;6627;50.920;12.050;2023-06-04T04:55:41;5.80;99.90
13123;DHT22;6627;50.920;12.050;2023-06-04T04:58:15;5.80;99.90
13123;DHT22;6627;50.920;12.050;2023-06-04T05:00:50;5.90;99.90
13123;DHT22;6627;50.920;12.050;2023-06-04T05:03:24;6.00;99.90
13123;DHT22;6627;50.920;12.050;2023-06-04T05:05:58;6.10;99.90
13123;DHT22;6627;50.920;12.050;2023-06-04T05:08:30;6.20;99.90
13123;DHT22;6627;50.920;12.050;2023-06-04T05:11:01;6.40;99.90
13123;DHT22;6627;50.920;12.050;2023-06-04T05:13:33;6.60;99.90
13123;DHT22;6627;50.920;12.050;2023-06-04T05:16:07;6.60;99.90
13123;DHT22;6627;50.920;12.050;2023-06-04T05:18:45;6.80;99.90
13123;DHT22;6627;50.920;12.050;2023-06-04T05:21:19;6.90;99.90
13123;DHT22;6627;50.920;12.050;2023-06-04T05:23:54;7.10;99.90
13123;DHT22;6627;50.920;12.050;2023-06-04T05:26:30;7.10;99.90
13123;DHT22;6627;50.920;12.050;2023-06-04T05:29:07;7.20;99.90
13123;DHT22;6627;50.920;12.050;2023-06-04T05:31:36;7.40;99.90
13123;DHT22;6627;50.920;12.050;2023-06-04T05:34:14;7.60;99.90
13123;DHT22;6627;50.920;12.050;2023-06-04T05:37:03;7.70;99.90
13123;DHT22;6627;50.920;12.050;2023-06-04T05:39:41;7.90;99.90
13123;DHT22;6627;50.920;12.050;2023-06-04T05:42:10;8.10;99.90
13123;DHT22;6627;50.920;12.050;2023-06-04T05:44:41;8.00;99.90
13123;DHT22;6627;50.920;12.050;2023-06-04T05:47:15;8.00;99.90
13123;DHT22;6627;50.920;12.050;2023-06-04T05:49:50;8.20;99.90
13123;DHT22;6627;50.920;12.050;2023-06-04T05:52:21;8.40;99.90
13123;DHT22;6627;50.920;12.050;2023-06-04T05:54:53;8.50;99.90
13123;DHT22;6627;50.920;12.050;2023-06-04T05:57:27;8.70;99.90
13123;DHT22;6627;50.920;12.050;2023-06-04T06:00:01;9.00;99.90
13123;DHT22;6627;50.920;12.050;2023-06-04T06:02:32;9.20;99.90
13123;DHT22;6627;50.920;12.050;2023-06-04T06:05:06;9.20;99.90
13123;DHT22;6627;50.920;12.050;2023-06-04T06:07:46;9.30;99.90
13123;DHT22;6627;50.920;12.050;2023-06-04T06:10:21;9.40;99.90
13123;DHT22;6627;50.920;12.050;2023-06-04T06:12:51;10.00;99.90
13123;DHT22;6627;50.920;12.050;2023-06-04T06:15:26;10.10;99.90
13123;DHT22;6627;50.920;12.050;2023-06-04T06:18:01;10.00;99.90
13123;DHT22;6627;50.920;12.050;2023-06-04T06:20:38;10.50;99.90
13123;DHT22;6627;50.920;12.050;2023-06-04T06:23:10;11.10;99.90
13123;DHT22;6627;50.920;12.050;2023-06-04T06:25:44;11.20;99.90
13123;DHT22;6627;50.920;12.050;2023-06-04T06:28:16;11.60;99.90
13123;DHT22;6627;50.920;12.050;2023-06-04T06:30:56;12.20;99.90
13123;DHT22;6627;50.920;12.050;2023-06-04T06:33:26;12.10;99.90
13123;DHT22;6627;50.920;12.050;2023-06-04T06:35:57;12.40;99.90
13123;DHT22;6627;50.920;12.050;2023-06-04T06:38:32;12.60;99.90
13123;DHT22;6627;50.920;12.050;2023-06-04T06:41:09;13.00;99.90
13123;DHT22;6627;50.920;12.050;2023-06-04T06:43:56;13.20;99.90
13123;DHT22;6627;50.920;12.050;2023-06-04T06:46:27;12.90;99.90
13123;DHT22;6627;50.920;12.050;2023-06-04T06:49:00;13.40;99.90
13123;DHT22;6627;50.920;12.050;2023-06-04T06:51:32;14.00;99.90
13123;DHT22;6627;50.920;12.050;2023-06-04T06:54:08;14.30;99.90
13123;DHT22;6627;50.920;12.050;2023-06-04T06:56:38;14.60;99.90
13123;DHT22;6627;50.920;12.050;2023-06-04T06:59:07;14.60;99.90
13123;DHT22;6627;50.920;12.050;2023-06-04T07:01:37;14.80;99.90
13123;DHT22;6627;50.920;12.050;2023-06-04T07:04:07;15.20;99.90
13123;DHT22;6627;50.920;12.050;2023-06-04T07:06:45;15.40;99.90
13123;DHT22;6627;50.920;12.050;2023-06-04T07:09:23;15.30;99.90
13123;DHT22;6627;50.920;12.050;2023-06-04T07:12:02;15.80;99.90
13123;DHT22;6627;50.920;12.050;2023-06-04T07:14:40;16.10;99.90
13123;DHT22;6627;50.920;12.050;2023-06-04T07:17:23;16.30;99.90
13123;DHT22;6627;50.920;12.050;2023-06-04T07:20:03;16.50;99.90
13123;DHT22;6627;50.920;12.050;2023-06-04T07:22:42;16.60;99.90
13123;DHT22;6627;50.920;12.050;2023-06-04T07:25:19;17.00;99.90
13123;DHT22;6627;50.920;12.050;2023-06-04T07:27:53;16.80;99.90
13123;DHT22;6627;50.920;12.050;2023-06-04T07:30:29;17.10;99.90
13123;DHT22;6627;50.920;12.050;2023-06-04T07:33:02;17.30;99.90
13123;DHT22;6627;50.920;12.050;2023-06-04T07:35:34;17.40;99.90
13123;DHT22;6627;50.920;12.050;2023-06-04T07:38:08;17.90;99.90
13123;DHT22;6627;50.920;12.050;2023-06-04T07:40:44;17.80;99.90
13123;DHT22;6627;50.920;12.050;2023-06-04T07:43:16;18.10;99.90
13123;DHT22;6627;50.920;12.050;2023-06-04T07:48:27;18.50;99.90
13123;DHT22;6627;50.920;12.050;2023-06-04T07:51:07;18.50;99.90
13123;DHT22;6627;50.920;12.050;2023-06-04T07:53:39;18.40;99.90
13123;DHT22;6627;50.920;12.050;2023-06-04T07:56:14;18.50;99.90
13123;DHT22;6627;50.920;12.050;2023-06-04T07:58:47;18.80;99.90
13123;DHT22;6627;50.920;12.050;2023-06-04T08:01:20;18.80;99.90
13123;DHT22;6627;50.920;12.050;2023-06-04T08:03:55;18.90;99.90
13123;DHT22;6627;50.920;12.050;2023-06-04T08:06:26;19.10;99.90
13123;DHT22;6627;50.920;12.050;2023-06-04T08:08:59;19.10;99.90
13123;DHT22;6627;50.920;12.050;2023-06-04T08:11:31;19.50;99.90
13123;DHT22;6627;50.920;12.050;2023-06-04T08:14:01;19.30;99.90
13123;DHT22;6627;50.920;12.050;2023-06-04T08:16:34;19.60;99.90
13123;DHT22;6627;50.920;12.050;2023-06-04T08:19:13;19.40;98.30
13123;DHT22;6627;50.920;12.050;2023-06-04T08:21:47;19.60;97.90
13123;DHT22;6627;50.920;12.050;2023-06-04T08:24:27;19.70;98.60
13123;DHT22;6627;50.920;12.050;2023-06-04T08:27:04;19.70;98.00
13123;DHT22;6627;50.920;12.050;2023-06-04T08:29:39;19.70;98.10
13123;DHT22;6627;50.920;12.050;2023-06-04T08:32:14;20.10;96.70
13123;DHT22;6627;50.920;12.050;2023-06-04T08:34:48;20.60;98.30
13123;DHT22;6627;50.920;12.050;2023-06-04T08:39:52;20.30;94.00
13123;DHT22;6627;50.920;12.050;2023-06-04T08:42:31;20.20;93.30
13123;DHT22;6627;50.920;12.050;2023-06-04T08:45:10;20.40;92.90
13123;DHT22;6627;50.920;12.050;2023-06-04T08:47:43;20.40;90.00
13123;DHT22;6627;50.920;12.050;2023-06-04T08:50:21;20.00;82.30
13123;DHT22;6627;50.920;12.050;2023-06-04T08:52:55;20.10;83.80
13123;DHT22;6627;50.920;12.050;2023-06-04T08:55:30;20.10;85.50
13123;DHT22;6627;50.920;12.050;2023-06-04T08:58:07;20.30;85.60
13123;DHT22;6627;50.920;12.050;2023-06-04T09:00:43;20.50;88.00
13123;DHT22;6627;50.920;12.050;2023-06-04T09:03:13;20.40;87.00
13123;DHT22;6627;50.920;12.050;2023-06-04T09:08:37;20.50;90.10
13123;DHT22;6627;50.920;12.050;2023-06-04T09:11:16;20.40;81.80
13123;DHT22;6627;50.920;12.050;2023-06-04T09:16:27;20.60;83.30
13123;DHT22;6627;50.920;12.050;2023-06-04T09:19:06;20.80;85.80
13123;DHT22;6627;50.920;12.050;2023-06-04T09:21:52;20.80;85.70
13123;DHT22;6627;50.920;12.050;2023-06-04T09:24:40;21.10;85.10
13123;DHT22;6627;50.920;12.050;2023-06-04T09:27:15;21.00;83.20
13123;DHT22;6627;50.920;12.050;2023-06-04T09:32:30;21.10;82.60
13123;DHT22;6627;50.920;12.050;2023-06-04T09:35:10;21.00;81.60
13123;DHT22;6627;50.920;12.050;2023-06-04T09:37:52;20.70;83.20
13123;DHT22;6627;50.920;12.050;2023-06-04T09:40:35;21.00;88.60
13123;DHT22;6627;50.920;12.050;2023-06-04T09:43:21;20.70;79.60
13123;DHT22;6627;50.920;12.050;2023-06-04T09:46:10;21.10;80.90
13123;DHT22;6627;50.920;12.050;2023-06-04T09:48:46;21.00;83.40
13123;DHT22;6627;50.920;12.050;2023-06-04T09:51:19;21.10;80.40
13123;DHT22;6627;50.920;12.050;2023-06-04T09:54:03;21.20;81.00
13123;DHT22;6627;50.920;12.050;2023-06-04T09:56:49;21.30;78.40
13123;DHT22;6627;50.920;12.050;2023-06-04T09:59:39;21.30;75.70
13123;DHT22;6627;50.920;12.050;2023-06-04T10:02:19;21.30;75.50
13123;DHT22;6627;50.920;12.050;2023-06-04T10:04:55;21.40;73.80
13123;DHT22;6627;50.920;12.050;2023-06-04T10:07:36;21.50;71.40
13123;DHT22;6627;50.920;12.050;2023-06-04T10:10:20;21.40;67.80
13123;DHT22;6627;50.920;12.050;2023-06-04T10:13:14;21.30;74.70
13123;DHT22;6627;50.920;12.050;2023-06-04T10:15:58;21.50;69.20
13123;DHT22;6627;50.920;12.050;2023-06-04T10:18:42;21.60;78.20
13123;DHT22;6627;50.920;12.050;2023-06-04T10:21:14;21.70;69.10
13123;DHT22;6627;50.920;12.050;2023-06-04T10:23:57;21.60;66.80
13123;DHT22;6627;50.920;12.050;2023-06-04T10:26:34;21.60;66.50
13123;DHT22;6627;50.920;12.050;2023-06-04T10:29:14;21.90;72.90
13123;DHT22;6627;50.920;12.050;2023-06-04T10:31:54;22.00;76.40
13123;DHT22;6627;50.920;12.050;2023-06-04T10:34:30;21.90;66.90
13123;DHT22;6627;50.920;12.050;2023-06-04T10:37:18;21.80;64.00
13123;DHT22;6627;50.920;12.050;2023-06-04T10:40:02;21.80;72.90
13123;DHT22;6627;50.920;12.050;2023-06-04T10:42:43;21.80;68.70
13123;DHT22;6627;50.920;12.050;2023-06-04T10:45:12;22.00;65.10
13123;DHT22;6627;50.920;12.050;2023-06-04T10:47:41;22.00;65.20
13123;DHT22;6627;50.920;12.050;2023-06-04T10:50:14;22.00;61.60
13123;DHT22;6627;50.920;12.050;2023-06-04T10:52:54;22.30;61.00
13123;DHT22;6627;50.920;12.050;2023-06-04T10:55:31;22.30;57.80
13123;DHT22;6627;50.920;12.050;2023-06-04T10:58:06;22.10;60.20
13123;DHT22;6627;50.920;12.050;2023-06-04T11:00:43;22.10;57.50
13123;DHT22;6627;50.920;12.050;2023-06-04T11:03:35;22.20;56.30
13123;DHT22;6627;50.920;12.050;2023-06-04T11:06:24;22.20;52.70
13123;DHT22;6627;50.920;12.050;2023-06-04T11:09:02;22.10;51.80
13123;DHT22;6627;50.920;12.050;2023-06-04T11:11:37;22.00;53.80
13123;DHT22;6627;50.920;12.050;2023-06-04T11:14:11;22.10;54.50
13123;DHT22;6627;50.920;12.050;2023-06-04T11:16:44;22.30;55.60
13123;DHT22;6627;50.920;12.050;2023-06-04T11:19:13;22.50;56.30
13123;DHT22;6627;50.920;12.050;2023-06-04T11:21:44;22.60;57.70
13123;DHT22;6627;50.920;12.050;2023-06-04T11:24:18;22.00;53.70
13123;DHT22;6627;50.920;12.050;2023-06-04T11:26:57;22.30;59.70
13123;DHT22;6627;50.920;12.050;2023-06-04T11:29:29;22.30;54.50
13123;DHT22;6627;50.920;12.050;2023-06-04T11:32:21;22.40;58.00
13123;DHT22;6627;50.920;12.050;2023-06-04T11:35:05;22.70;56.60
13123;DHT22;6627;50.920;12.050;2023-06-04T11:37:37;22.60;53.10
13123;DHT22;6627;50.920;12.050;2023-06-04T11:40:16;22.80;56.30
13123;DHT22;6627;50.920;12.050;2023-06-04T11:42:46;22.90;50.60
13123;DHT22;6627;50.920;12.050;2023-06-04T11:45:33;22.90;56.80
13123;DHT22;6627;50.920;12.050;2023-06-04T11:48:11;22.70;51.40
13123;DHT22;6627;50.920;12.050;2023-06-04T11:50:48;22.60;54.30
13123;DHT22;6627;50.920;12.050;2023-06-04T11:53:19;23.00;54.70
13123;DHT22;6627;50.920;12.050;2023-06-04T11:55:53;23.10;53.00
13123;DHT22;6627;50.920;12.050;2023-06-04T11:58:37;22.80;52.20
13123;DHT22;6627;50.920;12.050;2023-06-04T12:01:08;22.50;50.50
13123;DHT22;6627;50.920;12.050;2023-06-04T12:03:39;22.60;55.40
13123;DHT22;6627;50.920;12.050;2023-06-04T12:06:13;22.30;56.30
13123;DHT22;6627;50.920;12.050;2023-06-04T12:08:51;22.80;55.80
13123;DHT22;6627;50.920;12.050;2023-06-04T12:11:26;22.70;53.00
13123;DHT22;6627;50.920;12.050;2023-06-04T12:14:06;22.90;53.30
13123;DHT22;6627;50.920;12.050;2023-06-04T12:16:39;23.20;55.60
13123;DHT22;6627;50.920;12.050;2023-06-04T12:19:18;23.30;55.50
13123;DHT22;6627;50.920;12.050;2023-06-04T12:22:02;23.20;52.50
13123;DHT22;6627;50.920;12.050;2023-06-04T12:24:48;23.40;55.10
13123;DHT22;6627;50.920;12.050;2023-06-04T12:27:29;23.40;53.80
13123;DHT22;6627;50.920;12.050;2023-06-04T12:30:02;23.30;50.00
13123;DHT22;6627;50.920;12.050;2023-06-04T12:32:35;22.80;47.10
13123;DHT22;6627;50.920;12.050;2023-06-04T12:35:06;22.80;53.90
13123;DHT22;6627;50.920;12.050;2023-06-04T12:37:45;23.30;51.80
13123;DHT22;6627;50.920;12.050;2023-06-04T12:40:24;23.50;50.70
13123;DHT22;6627;50.920;12.050;2023-06-04T12:43:05;23.40;49.50
13123;DHT22;6627;50.920;12.050;2023-06-04T12:45:44;23.50;51.00
13123;DHT22;6627;50.920;12.050;2023-06-04T12:48:23;23.50;49.60
13123;DHT22;6627;50.920;12.050;2023-06-04T12:51:04;23.50;50.50
13123;DHT22;6627;50.920;12.050;2023-06-04T12:53:47;23.30;46.50
13123;DHT22;6627;50.920;12.050;2023-06-04T12:56:25;23.60;51.80
13123;DHT22;6627;50.920;12.050;2023-06-04T12:59:08;23.70;48.30
13123;DHT22;6627;50.920;12.050;2023-06-04T13:01:47;23.20;46.90
13123;DHT22;6627;50.920;12.050;2023-06-04T13:04:19;23.10;46.40
13123;DHT22;6627;50.920;12.050;2023-06-04T13:06:59;23.20;50.80
13123;DHT22;6627;50.920;12.050;2023-06-04T13:09:28;23.40;47.10
13123;DHT22;6627;50.920;12.050;2023-06-04T13:12:05;23.40;48.80
13123;DHT22;6627;50.920;12.050;2023-06-04T13:14:42;23.50;46.70
13123;DHT22;6627;50.920;12.050;2023-06-04T13:17:14;23.80;48.40
13123;DHT22;6627;50.920;12.050;2023-06-04T13:19:53;23.90;47.50
13123;DHT22;6627;50.920;12.050;2023-06-04T13:22:24;23.60;47.10
13123;DHT22;6627;50.920;12.050;2023-06-04T13:25:02;23.50;46.70
13123;DHT22;6627;50.920;12.050;2023-06-04T13:27:35;23.70;48.00
13123;DHT22;6627;50.920;12.050;2023-06-04T13:30:11;23.60;46.40
13123;DHT22;6627;50.920;12.050;2023-06-04T13:32:53;23.50;48.00
13123;DHT22;6627;50.920;12.050;2023-06-04T13:35:35;23.30;45.00
13123;DHT22;6627;50.920;12.050;2023-06-04T13:38:05;23.30;44.70
13123;DHT22;6627;50.920;12.050;2023-06-04T13:40:40;23.60;48.40
13123;DHT22;6627;50.920;12.050;2023-06-04T13:43:26;23.70;45.80
13123;DHT22;6627;50.920;12.050;2023-06-04T13:45:56;23.70;44.80
13123;DHT22;6627;50.920;12.050;2023-06-04T13:48:26;23.90;44.70
13123;DHT22;6627;50.920;12.050;2023-06-04T13:50:58;23.80;45.70
13123;DHT22;6627;50.920;12.050;2023-06-04T13:53:43;23.60;46.80
13123;DHT22;6627;50.920;12.050;2023-06-04T13:56:16;23.70;43.90
13123;DHT22;6627;50.920;12.050;2023-06-04T13:58:53;23.80;45.20
13123;DHT22;6627;50.920;12.050;2023-06-04T14:01:37;23.70;43.50
13123;DHT22;6627;50.920;12.050;2023-06-04T14:04:05;23.60;46.80
13123;DHT22;6627;50.920;12.050;2023-06-04T14:06:41;23.70;45.00
13123;DHT22;6627;50.920;12.050;2023-06-04T14:09:25;23.80;45.50
13123;DHT22;6627;50.920;12.050;2023-06-04T14:12:03;23.70;41.90
13123;DHT22;6627;50.920;12.050;2023-06-04T14:14:39;23.70;44.70
13123;DHT22;6627;50.920;12.050;2023-06-04T14:17:13;23.70;43.60
13123;DHT22;6627;50.920;12.050;2023-06-04T14:19:46;23.70;42.40
13123;DHT22;6627;50.920;12.050;2023-06-04T14:22:20;23.70;42.70
13123;DHT22;6627;50.920;12.050;2023-06-04T14:24:48;23.70;43.70
13123;DHT22;6627;50.920;12.050;2023-06-04T14:27:31;23.80;44.80
13123;DHT22;6627;50.920;12.050;2023-06-04T14:30:12;23.80;43.60
13123;DHT22;6627;50.920;12.050;2023-06-04T14:32:53;23.70;43.00
13123;DHT22;6627;50.920;12.050;2023-06-04T14:35:27;23.70;41.40
13123;DHT22;6627;50.920;12.050;2023-06-04T14:38:02;23.70;41.70
13123;DHT22;6627;50.920;12.050;2023-06-04T14:40:43;23.40;42.90
13123;DHT22;6627;50.920;12.050;2023-06-04T14:43:18;23.50;41.40
13123;DHT22;6627;50.920;12.050;2023-06-04T14:46:06;23.70;43.30
13123;DHT22;6627;50.920;12.050;2023-06-04T14:48:44;23.70;42.10
13123;DHT22;6627;50.920;12.050;2023-06-04T14:51:23;23.60;41.90
13123;DHT22;6627;50.920;12.050;2023-06-04T14:53:58;23.70;41.00
13123;DHT22;6627;50.920;12.050;2023-06-04T14:56:34;23.80;39.10
13123;DHT22;6627;50.920;12.050;2023-06-04T14:59:15;23.60;43.20
13123;DHT22;6627;50.920;12.050;2023-06-04T15:02:01;23.70;40.00
13123;DHT22;6627;50.920;12.050;2023-06-04T15:04:36;23.70;37.80
13123;DHT22;6627;50.920;12.050;2023-06-04T15:07:21;23.70;40.30
13123;DHT22;6627;50.920;12.050;2023-06-04T15:09:53;23.80;36.30
13123;DHT22;6627;50.920;12.050;2023-06-04T15:12:29;23.70;37.50
13123;DHT22;6627;50.920;12.050;2023-06-04T15:15:05;23.70;37.20
13123;DHT22;6627;50.920;12.050;2023-06-04T15:17:41;23.60;36.40
13123;DHT22;6627;50.920;12.050;2023-06-04T15:20:27;23.70;35.70
13123;DHT22;6627;50.920;12.050;2023-06-04T15:22:57;23.80;35.30
13123;DHT22;6627;50.920;12.050;2023-06-04T15:25:35;23.90;36.00
13123;DHT22;6627;50.920;12.050;2023-06-04T15:28:07;23.50;34.50
13123;DHT22;6627;50.920;12.050;2023-06-04T15:30:47;23.50;34.80
13123;DHT22;6627;50.920;12.050;2023-06-04T15:33:16;23.70;34.40
13123;DHT22;6627;50.920;12.050;2023-06-04T15:35:56;23.80;37.00
13123;DHT22;6627;50.920;12.050;2023-06-04T15:38:41;23.70;34.10
13123;DHT22;6627;50.920;12.050;2023-06-04T15:41:22;23.60;36.80
13123;DHT22;6627;50.920;12.050;2023-06-04T15:43:57;23.70;35.80
13123;DHT22;6627;50.920;12.050;2023-06-04T15:46:44;23.80;33.20
13123;DHT22;6627;50.920;12.050;2023-06-04T15:49:16;23.60;34.80
13123;DHT22;6627;50.920;12.050;2023-06-04T15:51:59;23.60;35.10
13123;DHT22;6627;50.920;12.050;2023-06-04T15:54:30;23.40;33.50
13123;DHT22;6627;50.920;12.050;2023-06-04T15:57:07;23.50;33.20
13123;DHT22;6627;50.920;12.050;2023-06-04T15:59:54;23.50;34.40
13123;DHT22;6627;50.920;12.050;2023-06-04T16:02:35;23.70;35.00
13123;DHT22;6627;50.920;12.050;2023-06-04T16:05:12;23.70;37.40
13123;DHT22;6627;50.920;12.050;2023-06-04T16:07:48;23.80;34.20
13123;DHT22;6627;50.920;12.050;2023-06-04T16:10:32;23.80;35.10
13123;DHT22;6627;50.920;12.050;2023-06-04T16:13:12;23.40;36.80
13123;DHT22;6627;50.920;12.050;2023-06-04T16:15:49;23.40;36.30
13123;DHT22;6627;50.920;12.050;2023-06-04T16:18:20;23.50;35.80
13123;DHT22;6627;50.920;12.050;2023-06-04T16:21:05;23.40;37.50
13123;DHT22;6627;50.920;12.050;2023-06-04T16:23:48;23.40;36.00
13123;DHT22;6627;50.920;12.050;2023-06-04T16:26:35;23.40;36.20
13123;DHT22;6627;50.920;12.050;2023-06-04T16:29:15;23.30;37.30
13123;DHT22;6627;50.920;12.050;2023-06-04T16:31:43;23.10;37.00
13123;DHT22;6627;50.920;12.050;2023-06-04T16:34:10;23.00;37.10
13123;DHT22;6627;50.920;12.050;2023-06-04T16:36:39;22.70;37.70
13123;DHT22;6627;50.920;12.050;2023-06-04T16:39:06;22.70;37.60
13123;DHT22;6627;50.920;12.050;2023-06-04T16:41:33;23.00;37.30
13123;DHT22;6627;50.920;12.050;2023-06-04T16:44:00;23.00;36.30
13123;DHT22;6627;50.920;12.050;2023-06-04T16:46:28;22.80;36.80
13123;DHT22;6627;50.920;12.050;2023-06-04T16:48:55;22.70;37.30
13123;DHT22;6627;50.920;12.050;2023-06-04T16:51:23;22.80;36.30
13123;DHT22;6627;50.920;12.050;2023-06-04T16:53:51;22.70;37.50